createdAt,value
2019-04-01T00:00:12.688Z,16.77
2019-04-01T00:02:42.379Z,10.67
2019-04-01T00:05:12.084Z,8.37
2019-04-01T00:07:42.856Z,10.93
2019-04-01T00:10:13.549Z,13.73
2019-04-01T00:12:45.595Z,8.23
2019-04-01T00:15:15.259Z,8.37
2019-04-01T00:17:47.427Z,11.93
2019-04-01T00:20:17.105Z,9.50
2019-04-01T00:22:46.881Z,9.97
2019-04-01T00:25:17.357Z,12.97
2019-04-01T00:27:48.236Z,18.00
2019-04-01T00:30:17.829Z,18.23
2019-04-01T00:32:49.992Z,14.20
2019-04-01T00:35:21.931Z,14.30
2019-04-01T00:37:51.434Z,17.20
2019-04-01T00:40:21.146Z,12.10
2019-04-01T00:42:58.864Z,10.30
2019-04-01T00:45:28.976Z,6.90
2019-04-01T00:47:58.699Z,10.00
2019-04-01T00:50:28.823Z,7.40
2019-04-01T00:53:00.580Z,8.03
2019-04-01T00:55:30.284Z,16.00
2019-04-01T00:58:01.020Z,24.60
2019-04-01T01:00:32.350Z,27.70
2019-04-01T01:03:02.075Z,24.37
2019-04-01T01:05:32.194Z,15.20
2019-04-01T01:08:03.524Z,10.90
2019-04-01T01:10:34.163Z,14.60
2019-04-01T01:13:04.680Z,16.30
2019-04-01T01:15:37.567Z,23.87
2019-04-01T01:18:10.992Z,31.67
2019-04-01T01:20:45.431Z,24.03
2019-04-01T01:23:16.058Z,16.90
2019-04-01T01:26:00.179Z,16.73
2019-04-01T01:28:29.726Z,21.70
2019-04-01T01:31:00.621Z,18.90
2019-04-01T01:33:30.157Z,16.07
2019-04-01T01:35:59.721Z,10.73
2019-04-01T01:38:33.201Z,10.70
2019-04-01T01:41:05.823Z,15.83
2019-04-01T01:43:35.509Z,37.60
2019-04-01T01:46:05.226Z,39.17
2019-04-01T01:48:38.271Z,33.07
2019-04-01T01:51:07.947Z,39.07
2019-04-01T01:53:37.424Z,36.70
2019-04-01T01:56:08.181Z,36.30
2019-04-01T01:58:39.720Z,39.40
2019-04-01T02:01:11.704Z,34.03
2019-04-01T02:03:43.461Z,36.50
2019-04-01T02:06:13.148Z,26.00
2019-04-01T02:08:42.835Z,31.70
2019-04-01T02:11:13.484Z,12.10
2019-04-01T02:13:43.958Z,22.40
2019-04-01T02:16:16.356Z,13.57
2019-04-01T02:18:46.874Z,12.43
2019-04-01T02:21:17.827Z,9.00
2019-04-01T02:23:47.492Z,7.80
2019-04-01T02:26:17.404Z,8.67
2019-04-01T02:28:47.083Z,10.37
2019-04-01T02:31:17.236Z,13.43
2019-04-01T02:33:48.352Z,10.53
2019-04-01T02:36:20.667Z,10.00
2019-04-01T02:38:50.238Z,13.40
2019-04-01T02:41:19.741Z,11.20
2019-04-01T02:43:49.317Z,9.43
2019-04-01T02:46:18.976Z,8.17
2019-04-01T02:48:51.826Z,8.97
2019-04-01T02:51:24.425Z,9.07
2019-04-01T02:53:54.033Z,7.67
2019-04-01T02:56:23.972Z,8.40
2019-04-01T02:58:53.638Z,10.17
2019-04-01T03:01:23.184Z,10.30
2019-04-01T03:03:52.886Z,9.53
2019-04-01T03:06:26.495Z,8.67
2019-04-01T03:08:56.002Z,11.03
2019-04-01T03:11:25.889Z,11.13
2019-04-01T03:14:08.124Z,10.77
2019-04-01T03:16:37.831Z,9.50
2019-04-01T03:19:07.741Z,9.00
2019-04-01T03:21:39.500Z,8.80
2019-04-01T03:24:09.186Z,8.57
2019-04-01T03:26:40.551Z,7.87
2019-04-01T03:29:13.944Z,7.17
2019-04-01T03:31:43.645Z,6.93
2019-04-01T03:34:14.652Z,8.17
2019-04-01T03:36:47.306Z,7.20
2019-04-01T03:39:17.746Z,8.20
2019-04-01T03:41:50.065Z,9.60
2019-04-01T03:44:24.779Z,9.40
2019-04-01T03:46:56.859Z,11.07
2019-04-01T03:49:26.634Z,12.77
2019-04-01T03:51:56.273Z,13.83
2019-04-01T03:54:26.008Z,15.40
2019-04-01T03:56:57.168Z,12.93
2019-04-01T03:59:27.075Z,13.07
2019-04-01T04:02:00.067Z,12.07
2019-04-01T04:04:34.878Z,11.43
2019-04-01T04:07:04.483Z,10.83
2019-04-01T04:09:35.924Z,10.93
2019-04-01T04:12:06.489Z,10.73
2019-04-01T04:14:38.002Z,10.53
2019-04-01T04:17:08.149Z,10.23
2019-04-01T04:19:40.220Z,8.73
2019-04-01T04:22:09.825Z,10.07
2019-04-01T04:24:39.727Z,8.97
2019-04-01T04:27:11.412Z,10.03
2019-04-01T04:29:40.809Z,9.93
2019-04-01T04:32:14.401Z,11.00
2019-04-01T04:34:46.956Z,10.90
2019-04-01T04:37:16.433Z,10.23
2019-04-01T04:39:46.008Z,9.13
2019-04-01T04:42:15.695Z,9.57
2019-04-01T04:44:46.819Z,8.73
2019-04-01T04:47:17.813Z,11.53
2019-04-01T04:49:47.924Z,10.40
2019-04-01T04:52:18.024Z,17.60
2019-04-01T04:54:48.144Z,17.87
2019-04-01T04:57:20.367Z,19.50
2019-04-01T04:59:50.872Z,18.73
2019-04-01T05:02:24.683Z,15.53
2019-04-01T05:04:54.569Z,11.77
2019-04-01T05:07:24.038Z,12.93
2019-04-01T05:09:56.037Z,13.10
2019-04-01T05:12:25.643Z,9.77
2019-04-01T05:14:56.686Z,7.87
2019-04-01T05:17:26.167Z,8.60
2019-04-01T05:19:55.569Z,8.13
2019-04-01T05:22:25.815Z,8.07
2019-04-01T05:24:59.268Z,7.90
2019-04-01T05:27:29.942Z,8.90
2019-04-01T05:30:00.871Z,8.30
2019-04-01T05:32:31.399Z,8.13
2019-04-01T05:35:05.287Z,9.37
2019-04-01T05:37:35.542Z,9.07
2019-04-01T05:40:06.054Z,8.57
2019-04-01T05:42:35.570Z,9.17
2019-04-01T05:45:05.675Z,8.07
2019-04-01T05:47:39.656Z,8.20
2019-04-01T05:50:09.838Z,8.67
2019-04-01T05:52:39.748Z,8.80
2019-04-01T05:55:09.329Z,7.40
2019-04-01T05:57:39.020Z,8.23
2019-04-01T06:00:09.476Z,8.03
2019-04-01T06:02:38.861Z,8.70
2019-04-01T06:05:08.906Z,8.67
2019-04-01T06:07:38.462Z,6.97
2019-04-01T06:10:07.900Z,8.10
2019-04-01T06:12:37.841Z,9.03
2019-04-01T06:15:11.128Z,8.73
2019-04-01T06:17:41.364Z,8.03
2019-04-01T06:20:13.905Z,8.50
2019-04-01T06:22:43.500Z,8.13
2019-04-01T06:25:13.151Z,9.03
2019-04-01T06:27:42.836Z,10.23
2019-04-01T06:30:13.185Z,11.70
2019-04-01T06:32:42.687Z,8.83
2019-04-01T06:35:11.955Z,9.30
2019-04-01T06:37:41.715Z,8.43
2019-04-01T06:40:11.167Z,10.60
2019-04-01T06:42:41.515Z,13.50
2019-04-01T06:45:11.254Z,8.90
2019-04-01T06:47:42.151Z,7.77
2019-04-01T06:50:12.272Z,7.27
2019-04-01T06:52:41.858Z,6.93
2019-04-01T06:55:11.518Z,7.17
2019-04-01T06:57:41.223Z,12.13
2019-04-01T07:00:10.762Z,9.90
2019-04-01T07:02:40.011Z,7.87
2019-04-01T07:05:12.541Z,7.93
2019-04-01T07:07:41.294Z,7.27
2019-04-01T07:10:11.375Z,6.10
2019-04-01T07:12:41.087Z,7.27
2019-04-01T07:15:14.110Z,6.50
2019-04-01T07:17:43.375Z,6.07
2019-04-01T07:20:12.881Z,6.87
2019-04-01T07:22:43.057Z,8.90
2019-04-01T07:25:12.750Z,7.03
2019-04-01T07:27:42.464Z,6.73
2019-04-01T07:30:12.542Z,7.73
2019-04-01T07:32:42.460Z,6.57
2019-04-01T07:35:11.760Z,5.63
2019-04-01T07:37:41.524Z,11.83
2019-04-01T07:40:13.904Z,6.97
2019-04-01T07:42:42.733Z,11.13
2019-04-01T07:45:14.501Z,6.57
2019-04-01T07:47:44.206Z,6.97
2019-04-01T07:50:14.847Z,4.73
2019-04-01T07:52:44.566Z,6.60
2019-04-01T07:55:14.138Z,6.30
2019-04-01T07:57:45.522Z,4.50
2019-04-01T08:00:15.416Z,3.00
2019-04-01T08:02:48.770Z,3.83
2019-04-01T08:05:16.745Z,3.23
2019-04-01T08:07:46.398Z,3.07
2019-04-01T08:10:16.523Z,2.60
2019-04-01T08:12:46.029Z,3.60
2019-04-01T08:15:16.085Z,4.00
2019-04-01T08:17:46.682Z,3.80
2019-04-01T08:20:16.794Z,3.17
2019-04-01T08:22:46.349Z,3.40
2019-04-01T08:25:16.009Z,3.47
2019-04-01T08:27:47.596Z,3.03
2019-04-01T08:30:17.707Z,3.10
2019-04-01T08:32:47.188Z,3.60
2019-04-01T08:35:17.134Z,3.57
2019-04-01T08:37:46.758Z,3.30
2019-04-01T08:40:18.800Z,4.10
2019-04-01T08:42:49.068Z,6.63
2019-04-01T08:45:18.872Z,2.70
2019-04-01T08:47:48.546Z,3.13
2019-04-01T08:50:23.020Z,2.17
2019-04-01T08:52:52.880Z,2.90
2019-04-01T08:55:25.231Z,2.27
2019-04-01T08:57:54.959Z,3.00
2019-04-01T09:00:24.452Z,2.37
2019-04-01T09:02:54.385Z,2.53
2019-04-01T09:05:25.379Z,1.90
2019-04-01T09:07:55.819Z,2.37
2019-04-01T09:10:25.570Z,2.30
2019-04-01T09:12:57.708Z,2.10
2019-04-01T09:15:27.634Z,3.13
2019-04-01T09:18:04.763Z,2.20
2019-04-01T09:20:35.660Z,2.53
2019-04-01T09:23:07.820Z,2.67
2019-04-01T09:25:38.667Z,3.30
2019-04-01T09:28:08.260Z,3.30
2019-04-01T09:30:40.281Z,3.97
2019-04-01T09:33:12.014Z,5.53
2019-04-01T09:35:41.921Z,2.13
2019-04-01T09:38:14.078Z,3.57
2019-04-01T09:40:47.363Z,5.73
2019-04-01T09:43:18.197Z,2.10
2019-04-01T09:45:47.931Z,2.43
2019-04-01T09:48:23.447Z,3.53
2019-04-01T09:50:51.091Z,3.83
2019-04-01T09:53:20.744Z,3.00
2019-04-01T09:55:50.228Z,2.83
2019-04-01T09:58:20.397Z,3.07
2019-04-01T10:00:54.297Z,4.30
2019-04-01T10:03:25.352Z,2.40
2019-04-01T10:05:55.222Z,6.30
2019-04-01T10:08:24.951Z,5.87
2019-04-01T10:10:54.682Z,3.60
2019-04-01T10:13:25.367Z,7.10
2019-04-01T10:15:55.092Z,5.40
2019-04-01T10:18:27.110Z,3.63
2019-04-01T10:21:00.279Z,4.27
2019-04-01T10:23:33.229Z,4.30
2019-04-01T10:26:05.823Z,2.77
2019-04-01T10:28:35.503Z,2.60
2019-04-01T10:31:05.415Z,1.90
2019-04-01T10:33:35.166Z,3.13
2019-04-01T10:36:04.881Z,3.30
2019-04-01T10:38:36.039Z,5.03
2019-04-01T10:41:05.730Z,6.03
2019-04-01T10:43:35.481Z,4.67
2019-04-01T10:46:04.977Z,3.57
2019-04-01T10:48:34.714Z,3.73
2019-04-01T10:51:04.801Z,2.33
2019-04-01T10:53:34.574Z,3.20
2019-04-01T10:56:04.206Z,3.77
2019-04-01T10:58:33.759Z,2.63
2019-04-01T11:01:04.553Z,2.47
2019-04-01T11:03:34.019Z,2.90
2019-04-01T11:06:03.973Z,2.43
2019-04-01T11:08:33.622Z,1.90
2019-04-01T11:11:03.418Z,2.17
2019-04-01T11:13:32.735Z,2.17
2019-04-01T11:16:02.125Z,3.10
2019-04-01T11:18:32.034Z,2.10
2019-04-01T11:21:01.687Z,3.03
2019-04-01T11:23:31.644Z,3.87
2019-04-01T11:26:01.105Z,3.37
2019-04-01T11:28:32.268Z,2.80
2019-04-01T11:31:03.018Z,2.60
2019-04-01T11:33:35.352Z,2.67
2019-04-01T11:36:05.091Z,2.73
2019-04-01T11:38:34.665Z,4.00
2019-04-01T11:41:04.119Z,3.57
2019-04-01T11:43:37.086Z,4.60
2019-04-01T11:46:06.675Z,4.30
2019-04-01T11:48:37.953Z,3.60
2019-04-01T11:51:07.905Z,3.07
2019-04-01T11:53:37.670Z,3.27
2019-04-01T11:56:06.849Z,4.17
2019-04-01T11:58:36.192Z,4.17
2019-04-01T12:01:06.289Z,4.57
2019-04-01T12:03:35.987Z,3.93
2019-04-01T12:06:05.704Z,3.57
2019-04-01T12:08:35.389Z,5.17
2019-04-01T12:11:05.512Z,4.43
2019-04-01T12:13:35.273Z,3.60
2019-04-01T12:16:05.891Z,3.57
2019-04-01T12:18:38.850Z,3.30
2019-04-01T12:21:08.682Z,3.13
2019-04-01T12:23:38.187Z,3.03
2019-04-01T12:26:15.492Z,3.80
2019-04-01T12:28:40.987Z,2.77
2019-04-01T12:31:12.836Z,3.30
2019-04-01T12:33:47.645Z,3.30
2019-04-01T12:36:20.960Z,2.90
2019-04-01T12:38:53.639Z,3.10
2019-04-01T12:41:23.156Z,3.30
2019-04-01T12:43:52.867Z,3.87
2019-04-01T12:46:23.789Z,6.07
2019-04-01T12:49:01.148Z,4.40
2019-04-01T12:51:30.196Z,2.80
2019-04-01T12:53:59.714Z,3.27
2019-04-01T12:56:29.387Z,4.10
2019-04-01T12:59:02.478Z,4.53
2019-04-01T13:01:32.072Z,4.13
2019-04-01T13:04:04.464Z,5.27
2019-04-01T13:06:34.204Z,3.60
2019-04-01T13:09:04.106Z,3.13
2019-04-01T13:11:36.037Z,5.07
2019-04-01T13:14:05.582Z,2.83
2019-04-01T13:16:35.171Z,2.67
2019-04-01T13:19:05.990Z,5.00
2019-04-01T13:21:35.572Z,4.57
2019-04-01T13:24:07.093Z,3.53
2019-04-01T13:26:36.773Z,2.93
2019-04-01T13:29:06.544Z,5.30
2019-04-01T13:31:36.217Z,2.90
2019-04-01T13:34:05.994Z,4.20
2019-04-01T13:36:35.610Z,5.93
2019-04-01T13:39:06.347Z,4.83
2019-04-01T13:41:42.209Z,3.13
2019-04-01T13:44:09.186Z,14.00
2019-04-01T13:46:38.739Z,3.20
2019-04-01T13:49:08.471Z,15.73
2019-04-01T13:51:38.405Z,3.67
2019-04-01T13:54:09.053Z,3.30
2019-04-01T13:56:38.420Z,11.33
2019-04-01T13:59:17.566Z,3.57
2019-04-01T14:01:47.477Z,22.17
2019-04-01T14:04:18.114Z,5.03
2019-04-01T14:06:51.419Z,6.77
2019-04-01T14:09:22.140Z,5.03
2019-04-01T14:11:52.067Z,5.77
2019-04-01T14:14:21.975Z,26.47
2019-04-01T14:16:51.502Z,18.67
2019-04-01T14:19:21.167Z,5.33
2019-04-01T14:21:53.603Z,2.63
2019-04-01T14:24:23.247Z,3.20
2019-04-01T14:26:56.383Z,3.80
2019-04-01T14:29:24.117Z,13.03
2019-04-01T14:31:53.847Z,4.37
2019-04-01T14:34:25.997Z,12.57
2019-04-01T14:36:59.131Z,3.63
2019-04-01T14:39:28.806Z,6.87
2019-04-01T14:42:01.096Z,2.10
2019-04-01T14:44:30.766Z,3.30
2019-04-01T14:47:00.275Z,5.10
2019-04-01T14:49:29.688Z,4.40
2019-04-01T14:51:59.509Z,4.57
2019-04-01T14:54:29.007Z,5.20
2019-04-01T14:56:59.137Z,2.40
2019-04-01T14:59:28.708Z,2.60
2019-04-01T15:01:59.203Z,3.40
2019-04-01T15:04:29.301Z,4.10
2019-04-01T15:07:00.431Z,3.30
2019-04-01T15:09:30.250Z,5.30
2019-04-01T15:11:59.849Z,4.47
2019-04-01T15:14:30.987Z,2.70
2019-04-01T15:17:00.520Z,4.73
2019-04-01T15:19:30.415Z,3.00
2019-04-01T15:22:00.125Z,6.07
2019-04-01T15:24:31.271Z,11.03
2019-04-01T15:27:00.218Z,13.80
2019-04-01T15:29:30.778Z,4.80
2019-04-01T15:32:00.164Z,5.60
2019-04-01T15:34:29.879Z,5.87
2019-04-01T15:37:02.061Z,5.47
2019-04-01T15:39:31.780Z,44.70
2019-04-01T15:42:03.881Z,33.67
2019-04-01T15:44:33.436Z,5.93
2019-04-01T15:47:04.464Z,6.77
2019-04-01T15:49:34.076Z,7.87
2019-04-01T15:52:03.024Z,6.07
2019-04-01T15:54:32.517Z,4.20
2019-04-01T15:57:06.369Z,5.10
2019-04-01T15:59:35.982Z,4.30
2019-04-01T16:02:06.134Z,4.50
2019-04-01T16:04:37.071Z,16.93
2019-04-01T16:07:06.582Z,5.83
2019-04-01T16:09:38.393Z,6.83
2019-04-01T16:12:08.253Z,19.03
2019-04-01T16:14:37.760Z,12.47
2019-04-01T16:17:07.108Z,7.27
2019-04-01T16:19:36.783Z,6.53
2019-04-01T16:22:06.285Z,9.50
2019-04-01T16:24:35.967Z,7.60
2019-04-01T16:27:05.675Z,11.10
2019-04-01T16:29:35.372Z,5.23
2019-04-01T16:32:04.890Z,4.47
2019-04-01T16:34:34.870Z,5.60
2019-04-01T16:37:08.670Z,5.83
2019-04-01T16:39:38.355Z,8.23
2019-04-01T16:42:08.266Z,9.77
2019-04-01T16:44:40.455Z,8.30
2019-04-01T16:47:14.353Z,7.70
2019-04-01T16:49:42.909Z,8.27
2019-04-01T16:52:15.293Z,11.40
2019-04-01T16:54:46.024Z,13.80
2019-04-01T16:57:17.978Z,13.97
2019-04-01T16:59:47.482Z,13.73
2019-04-01T17:02:18.481Z,10.53
2019-04-01T17:04:48.782Z,6.73
2019-04-01T17:07:21.185Z,7.53
2019-04-01T17:09:50.819Z,19.20
2019-04-01T17:12:21.884Z,11.77
2019-04-01T17:14:52.882Z,13.57
2019-04-01T17:17:24.170Z,11.73
2019-04-01T17:19:53.591Z,13.70
2019-04-01T17:22:23.129Z,9.57
2019-04-01T17:24:53.199Z,8.43
2019-04-01T17:27:23.122Z,32.87
2019-04-01T17:29:53.058Z,24.73
2019-04-01T17:32:24.698Z,20.37
2019-04-01T17:34:54.299Z,14.70
2019-04-01T17:37:23.811Z,30.50
2019-04-01T17:39:53.361Z,24.23
2019-04-01T17:42:23.007Z,16.17
2019-04-01T17:44:55.161Z,10.53
2019-04-01T17:47:27.541Z,19.67
2019-04-01T17:50:00.261Z,18.23
2019-04-01T17:52:30.266Z,22.20
2019-04-01T17:54:59.754Z,22.57
2019-04-01T17:57:29.450Z,19.17
2019-04-01T18:00:01.418Z,21.77
2019-04-01T18:02:33.399Z,19.10
2019-04-01T18:05:03.321Z,73.90
2019-04-01T18:07:38.955Z,28.23
2019-04-01T18:10:09.294Z,25.67
2019-04-01T18:12:38.772Z,30.23
2019-04-01T18:15:08.650Z,26.00
2019-04-01T18:17:38.205Z,36.13
2019-04-01T18:20:14.295Z,30.77
2019-04-01T18:22:43.819Z,23.07
2019-04-01T18:25:13.497Z,35.07
2019-04-01T18:27:44.240Z,26.63
2019-04-01T18:30:17.428Z,26.53
2019-04-01T18:32:46.923Z,33.50
2019-04-01T18:35:16.676Z,21.77
2019-04-01T18:37:48.332Z,22.50
2019-04-01T18:40:31.918Z,21.93
2019-04-01T18:42:49.919Z,26.20
2019-04-01T18:45:20.199Z,26.13
2019-04-01T18:47:53.018Z,25.97
2019-04-01T18:50:22.695Z,22.27
2019-04-01T18:52:52.378Z,24.70
2019-04-01T18:55:22.092Z,19.07
2019-04-01T18:58:00.110Z,23.73
2019-04-01T19:00:25.829Z,17.87
2019-04-01T19:02:57.356Z,18.30
2019-04-01T19:05:29.516Z,19.13
2019-04-01T19:07:59.272Z,16.30
2019-04-01T19:10:30.151Z,13.70
2019-04-01T19:13:06.071Z,17.63
2019-04-01T19:15:34.061Z,15.50
2019-04-01T19:18:04.260Z,13.50
2019-04-01T19:20:33.931Z,13.17
2019-04-01T19:23:04.085Z,12.70
2019-04-01T19:25:38.492Z,14.53
2019-04-01T19:28:09.404Z,29.93
2019-04-01T19:30:40.547Z,34.93
2019-04-01T19:33:10.258Z,20.47
2019-04-01T19:35:39.820Z,22.03
2019-04-01T19:38:09.708Z,17.30
2019-04-01T19:40:39.278Z,23.07
2019-04-01T19:43:09.119Z,16.27
2019-04-01T19:45:39.996Z,17.53
2019-04-01T19:48:11.009Z,14.53
2019-04-01T19:50:41.127Z,17.33
2019-04-01T19:53:10.848Z,20.53
2019-04-01T19:55:43.949Z,17.90
2019-04-01T19:58:13.606Z,19.70
2019-04-01T20:00:45.556Z,16.47
2019-04-01T20:03:16.454Z,18.07
2019-04-01T20:13:33.284Z,12.67
2019-04-01T20:16:02.968Z,15.43
2019-04-01T20:18:33.129Z,14.37
2019-04-01T20:21:02.664Z,11.93
2019-04-01T20:23:35.012Z,11.57
2019-04-01T20:26:05.338Z,13.57
2019-04-01T20:28:34.839Z,11.83
2019-04-01T20:31:06.202Z,12.33
2019-04-01T20:33:35.681Z,12.63
2019-04-01T20:36:07.870Z,14.07
2019-04-01T20:38:37.227Z,12.47
2019-04-01T20:41:08.734Z,14.50
2019-04-01T20:43:38.079Z,14.80
2019-04-01T20:46:13.208Z,13.10
2019-04-01T20:48:44.718Z,13.67
2019-04-01T20:51:18.171Z,9.73
2019-04-01T20:53:47.740Z,11.83
2019-04-01T20:56:16.803Z,8.97
2019-04-01T20:58:45.787Z,11.43
2019-04-01T21:01:14.845Z,10.07
2019-04-01T21:03:43.757Z,11.57
2019-04-01T21:06:13.809Z,14.70
2019-04-01T21:08:46.303Z,10.53
2019-04-01T21:11:19.937Z,12.27
2019-04-01T21:13:49.515Z,9.73
2019-04-01T21:16:19.180Z,9.43
2019-04-01T21:18:49.107Z,12.77
2019-04-01T21:21:18.795Z,12.37
2019-04-01T21:23:48.541Z,12.23
2019-04-01T21:26:18.019Z,12.17
2019-04-01T21:28:47.565Z,10.37
2019-04-01T21:31:17.342Z,12.10
2019-04-01T21:33:47.376Z,14.33
2019-04-01T21:36:16.922Z,13.53
2019-04-01T21:38:46.377Z,12.90
2019-04-01T21:41:16.078Z,15.00
2019-04-01T21:43:48.100Z,15.10
2019-04-01T21:46:18.800Z,11.87
2019-04-01T21:48:48.294Z,14.57
2019-04-01T21:51:18.014Z,13.20
2019-04-01T21:53:47.283Z,14.07
2019-04-01T21:56:16.811Z,11.37
2019-04-01T21:58:46.504Z,8.90
2019-04-01T22:01:16.860Z,13.20
2019-04-01T22:03:47.174Z,18.80
2019-04-01T22:06:17.096Z,19.53
2019-04-01T22:08:49.052Z,11.87
2019-04-01T22:11:18.756Z,12.23
2019-04-01T22:13:48.484Z,16.13
2019-04-01T22:16:19.088Z,13.67
2019-04-01T22:18:50.943Z,13.63
2019-04-01T22:21:20.645Z,14.07
2019-04-01T22:23:50.388Z,9.97
2019-04-01T22:26:22.662Z,11.87
2019-04-01T22:28:52.300Z,11.57
2019-04-01T22:31:21.971Z,9.03
2019-04-01T22:33:51.277Z,12.70
2019-04-01T22:36:30.411Z,8.53
2019-04-01T22:38:52.128Z,8.90
2019-04-01T22:41:24.505Z,10.13
2019-04-01T22:43:54.288Z,9.50
2019-04-01T22:46:24.933Z,10.67
2019-04-01T22:48:54.496Z,8.97
2019-04-01T22:51:24.144Z,8.50
2019-04-01T22:53:54.077Z,8.53
2019-04-01T22:56:23.795Z,7.20
2019-04-01T22:58:53.300Z,8.10
2019-04-01T23:01:26.108Z,8.10
2019-04-01T23:03:55.367Z,6.97
2019-04-01T23:06:27.286Z,17.20
2019-04-01T23:08:57.952Z,11.43
2019-04-01T23:11:27.173Z,16.77
2019-04-01T23:13:56.665Z,10.40
2019-04-01T23:16:26.212Z,17.07
2019-04-01T23:18:57.609Z,17.03
2019-04-01T23:21:28.481Z,18.37
2019-04-01T23:23:59.766Z,9.70
2019-04-01T23:26:29.525Z,9.70
2019-04-01T23:28:59.454Z,8.90
2019-04-01T23:31:29.080Z,12.77
2019-04-01T23:33:58.636Z,7.73
2019-04-01T23:36:28.351Z,8.80
2019-04-01T23:38:58.568Z,7.97
2019-04-01T23:41:28.195Z,8.03
2019-04-01T23:43:57.899Z,7.53
2019-04-01T23:46:27.632Z,7.67
2019-04-01T23:48:57.548Z,7.33
2019-04-01T23:51:27.462Z,10.37
2019-04-01T23:53:57.151Z,16.00
2019-04-01T23:56:27.333Z,12.83
2019-04-01T23:59:01.503Z,13.90
